sensor_id;sensor_type;location;lat;lon;timestamp;temperature;humidity
25568;DHT22;13455;51.480;7.594;2023-07-08T00:02:21;20.80;84.90
25568;DHT22;13455;51.480;7.594;2023-07-08T00:04:47;20.80;80.90
25568;DHT22;13455;51.480;7.594;2023-07-08T00:07:16;21.30;81.40
25568;DHT22;13455;51.480;7.594;2023-07-08T00:09:43;20.80;81.40
25568;DHT22;13455;51.480;7.594;2023-07-08T00:12:10;20.70;81.40
25568;DHT22;13455;51.480;7.594;2023-07-08T00:17:04;20.70;81.10
25568;DHT22;13455;51.480;7.594;2023-07-08T00:19:30;20.70;81.80
25568;DHT22;13455;51.480;7.594;2023-07-08T00:21:56;20.70;81.90
25568;DHT22;13455;51.480;7.594;2023-07-08T00:24:22;20.70;82.10
25568;DHT22;13455;51.480;7.594;2023-07-08T00:26:47;20.70;82.10
25568;DHT22;13455;51.480;7.594;2023-07-08T00:29:15;20.70;82.10
25568;DHT22;13455;51.480;7.594;2023-07-08T00:31:41;20.70;82.00
25568;DHT22;13455;51.480;7.594;2023-07-08T00:34:07;20.70;81.90
25568;DHT22;13455;51.480;7.594;2023-07-08T00:36:33;20.70;82.10
25568;DHT22;13455;51.480;7.594;2023-07-08T00:38:59;20.70;82.00
25568;DHT22;13455;51.480;7.594;2023-07-08T00:41:35;20.70;82.00
25568;DHT22;13455;51.480;7.594;2023-07-08T00:44:02;20.70;82.00
25568;DHT22;13455;51.480;7.594;2023-07-08T00:51:32;20.80;82.10
25568;DHT22;13455;51.480;7.594;2023-07-08T00:53:57;20.80;82.10
25568;DHT22;13455;51.480;7.594;2023-07-08T00:56:32;20.70;81.90
25568;DHT22;13455;51.480;7.594;2023-07-08T00:59:29;20.70;82.10
25568;DHT22;13455;51.480;7.594;2023-07-08T01:01:58;20.80;82.10
25568;DHT22;13455;51.480;7.594;2023-07-08T01:04:37;20.80;82.10
25568;DHT22;13455;51.480;7.594;2023-07-08T01:07:07;20.80;82.30
25568;DHT22;13455;51.480;7.594;2023-07-08T01:09:37;20.70;82.10
25568;DHT22;13455;51.480;7.594;2023-07-08T01:12:09;20.70;82.10
25568;DHT22;13455;51.480;7.594;2023-07-08T01:14:37;20.70;82.20
25568;DHT22;13455;51.480;7.594;2023-07-08T01:17:04;20.70;82.20
25568;DHT22;13455;51.480;7.594;2023-07-08T01:19:30;20.70;82.20
25568;DHT22;13455;51.480;7.594;2023-07-08T01:22:03;20.70;82.20
25568;DHT22;13455;51.480;7.594;2023-07-08T01:24:32;20.60;82.30
25568;DHT22;13455;51.480;7.594;2023-07-08T01:27:00;20.70;82.20
25568;DHT22;13455;51.480;7.594;2023-07-08T01:29:26;20.70;82.30
25568;DHT22;13455;51.480;7.594;2023-07-08T01:31:55;20.60;82.10
25568;DHT22;13455;51.480;7.594;2023-07-08T01:34:21;20.70;82.20
25568;DHT22;13455;51.480;7.594;2023-07-08T01:36:50;20.50;82.30
25568;DHT22;13455;51.480;7.594;2023-07-08T01:39:19;20.60;82.10
25568;DHT22;13455;51.480;7.594;2023-07-08T01:41:45;20.60;82.30
25568;DHT22;13455;51.480;7.594;2023-07-08T01:44:26;20.50;82.50
25568;DHT22;13455;51.480;7.594;2023-07-08T01:46:53;20.50;82.50
25568;DHT22;13455;51.480;7.594;2023-07-08T01:49:20;20.70;82.70
25568;DHT22;13455;51.480;7.594;2023-07-08T01:51:46;20.60;82.80
25568;DHT22;13455;51.480;7.594;2023-07-08T01:54:12;20.60;83.40
25568;DHT22;13455;51.480;7.594;2023-07-08T01:56:38;20.40;82.90
25568;DHT22;13455;51.480;7.594;2023-07-08T01:59:03;20.10;82.80
25568;DHT22;13455;51.480;7.594;2023-07-08T02:01:29;20.60;83.20
25568;DHT22;13455;51.480;7.594;2023-07-08T02:03:54;20.50;83.70
25568;DHT22;13455;51.480;7.594;2023-07-08T02:06:22;20.50;89.30
25568;DHT22;13455;51.480;7.594;2023-07-08T02:08:47;20.50;84.10
25568;DHT22;13455;51.480;7.594;2023-07-08T02:11:13;20.30;90.60
25568;DHT22;13455;51.480;7.594;2023-07-08T02:13:38;20.40;87.00
25568;DHT22;13455;51.480;7.594;2023-07-08T02:16:06;20.50;84.20
25568;DHT22;13455;51.480;7.594;2023-07-08T02:18:32;20.30;83.50
25568;DHT22;13455;51.480;7.594;2023-07-08T02:20:58;20.30;83.60
25568;DHT22;13455;51.480;7.594;2023-07-08T02:23:25;20.30;83.80
25568;DHT22;13455;51.480;7.594;2023-07-08T02:25:52;20.40;83.90
25568;DHT22;13455;51.480;7.594;2023-07-08T02:28:18;20.50;84.30
25568;DHT22;13455;51.480;7.594;2023-07-08T02:30:44;20.60;86.50
25568;DHT22;13455;51.480;7.594;2023-07-08T02:33:11;20.50;90.00
25568;DHT22;13455;51.480;7.594;2023-07-08T02:35:37;20.30;92.80
25568;DHT22;13455;51.480;7.594;2023-07-08T02:38:02;20.30;95.70
25568;DHT22;13455;51.480;7.594;2023-07-08T02:55:06;20.20;99.90
25568;DHT22;13455;51.480;7.594;2023-07-08T02:59:57;20.00;84.70
25568;DHT22;13455;51.480;7.594;2023-07-08T03:02:23;20.30;93.60
25568;DHT22;13455;51.480;7.594;2023-07-08T03:04:49;20.10;89.80
25568;DHT22;13455;51.480;7.594;2023-07-08T03:07:16;20.20;91.70
25568;DHT22;13455;51.480;7.594;2023-07-08T03:09:41;19.90;86.90
25568;DHT22;13455;51.480;7.594;2023-07-08T03:12:08;19.90;86.80
25568;DHT22;13455;51.480;7.594;2023-07-08T03:14:35;19.80;87.00
25568;DHT22;13455;51.480;7.594;2023-07-08T03:17:01;19.80;87.10
25568;DHT22;13455;51.480;7.594;2023-07-08T03:21:53;19.90;92.90
25568;DHT22;13455;51.480;7.594;2023-07-08T03:24:19;19.70;87.60
25568;DHT22;13455;51.480;7.594;2023-07-08T03:29:15;19.70;99.90
25568;DHT22;13455;51.480;7.594;2023-07-08T03:31:41;20.10;91.80
25568;DHT22;13455;51.480;7.594;2023-07-08T03:34:09;19.60;88.80
25568;DHT22;13455;51.480;7.594;2023-07-08T03:36:39;19.50;94.80
25568;DHT22;13455;51.480;7.594;2023-07-08T03:46:23;19.50;90.00
25568;DHT22;13455;51.480;7.594;2023-07-08T03:48:49;19.40;90.40
25568;DHT22;13455;51.480;7.594;2023-07-08T03:51:28;19.40;90.50
25568;DHT22;13455;51.480;7.594;2023-07-08T03:53:55;19.30;90.60
25568;DHT22;13455;51.480;7.594;2023-07-08T03:56:20;19.40;90.90
25568;DHT22;13455;51.480;7.594;2023-07-08T03:58:46;19.70;99.90
25568;DHT22;13455;51.480;7.594;2023-07-08T04:01:16;19.50;93.50
25568;DHT22;13455;51.480;7.594;2023-07-08T04:03:46;19.40;91.10
25568;DHT22;13455;51.480;7.594;2023-07-08T04:06:12;19.30;91.40
25568;DHT22;13455;51.480;7.594;2023-07-08T04:08:37;19.30;91.40
25568;DHT22;13455;51.480;7.594;2023-07-08T04:11:03;19.40;91.70
25568;DHT22;13455;51.480;7.594;2023-07-08T04:13:29;19.60;95.00
25568;DHT22;13455;51.480;7.594;2023-07-08T04:15:57;19.20;92.10
25568;DHT22;13455;51.480;7.594;2023-07-08T04:18:24;19.30;91.50
25568;DHT22;13455;51.480;7.594;2023-07-08T04:20:50;19.40;92.00
25568;DHT22;13455;51.480;7.594;2023-07-08T04:23:21;19.50;92.00
25568;DHT22;13455;51.480;7.594;2023-07-08T04:25:48;19.50;92.30
25568;DHT22;13455;51.480;7.594;2023-07-08T04:28:14;19.70;92.40
25568;DHT22;13455;51.480;7.594;2023-07-08T04:30:40;19.90;92.50
25568;DHT22;13455;51.480;7.594;2023-07-08T04:33:11;19.50;92.40
25568;DHT22;13455;51.480;7.594;2023-07-08T04:35:37;19.70;92.60
25568;DHT22;13455;51.480;7.594;2023-07-08T04:38:25;19.80;92.50
25568;DHT22;13455;51.480;7.594;2023-07-08T04:40:51;19.60;92.60
25568;DHT22;13455;51.480;7.594;2023-07-08T04:43:19;19.70;92.80
25568;DHT22;13455;51.480;7.594;2023-07-08T04:45:49;19.60;92.40
25568;DHT22;13455;51.480;7.594;2023-07-08T04:48:17;19.10;92.60
25568;DHT22;13455;51.480;7.594;2023-07-08T04:50:46;19.90;99.20
25568;DHT22;13455;51.480;7.594;2023-07-08T05:00:34;19.50;93.00
25568;DHT22;13455;51.480;7.594;2023-07-08T05:02:59;19.50;93.40
25568;DHT22;13455;51.480;7.594;2023-07-08T05:05:25;19.50;93.40
25568;DHT22;13455;51.480;7.594;2023-07-08T05:07:51;19.50;93.70
25568;DHT22;13455;51.480;7.594;2023-07-08T05:10:17;19.40;94.00
25568;DHT22;13455;51.480;7.594;2023-07-08T05:12:44;19.50;93.70
25568;DHT22;13455;51.480;7.594;2023-07-08T05:15:10;19.50;93.50
25568;DHT22;13455;51.480;7.594;2023-07-08T05:17:37;19.50;93.70
25568;DHT22;13455;51.480;7.594;2023-07-08T05:20:03;19.50;93.70
25568;DHT22;13455;51.480;7.594;2023-07-08T05:22:29;19.60;93.80
25568;DHT22;13455;51.480;7.594;2023-07-08T05:24:54;19.60;94.00
25568;DHT22;13455;51.480;7.594;2023-07-08T05:27:22;19.70;93.80
25568;DHT22;13455;51.480;7.594;2023-07-08T05:29:48;19.70;93.80
25568;DHT22;13455;51.480;7.594;2023-07-08T05:32:14;19.80;93.80
25568;DHT22;13455;51.480;7.594;2023-07-08T05:34:40;19.90;93.60
25568;DHT22;13455;51.480;7.594;2023-07-08T05:37:06;20.00;93.60
25568;DHT22;13455;51.480;7.594;2023-07-08T05:39:32;20.10;93.50
25568;DHT22;13455;51.480;7.594;2023-07-08T05:41:57;20.20;93.50
25568;DHT22;13455;51.480;7.594;2023-07-08T05:44:23;20.30;93.20
25568;DHT22;13455;51.480;7.594;2023-07-08T05:46:50;20.40;93.00
25568;DHT22;13455;51.480;7.594;2023-07-08T05:49:15;20.50;93.00
25568;DHT22;13455;51.480;7.594;2023-07-08T05:51:42;20.60;92.90
25568;DHT22;13455;51.480;7.594;2023-07-08T05:54:08;20.70;93.10
25568;DHT22;13455;51.480;7.594;2023-07-08T05:56:34;20.90;93.00
25568;DHT22;13455;51.480;7.594;2023-07-08T05:58:59;21.00;93.10
25568;DHT22;13455;51.480;7.594;2023-07-08T06:01:25;21.10;93.20
25568;DHT22;13455;51.480;7.594;2023-07-08T06:03:50;21.20;93.30
25568;DHT22;13455;51.480;7.594;2023-07-08T06:06:16;21.40;92.80
25568;DHT22;13455;51.480;7.594;2023-07-08T06:11:08;21.60;92.20
25568;DHT22;13455;51.480;7.594;2023-07-08T06:16:00;21.80;92.60
25568;DHT22;13455;51.480;7.594;2023-07-08T06:18:26;22.20;99.90
25568;DHT22;13455;51.480;7.594;2023-07-08T06:20:53;22.20;92.30
25568;DHT22;13455;51.480;7.594;2023-07-08T06:23:20;22.20;91.70
25568;DHT22;13455;51.480;7.594;2023-07-08T06:28:11;22.50;91.00
25568;DHT22;13455;51.480;7.594;2023-07-08T06:30:37;22.80;90.50
25568;DHT22;13455;51.480;7.594;2023-07-08T06:33:03;22.80;90.80
25568;DHT22;13455;51.480;7.594;2023-07-08T06:35:29;23.00;90.70
25568;DHT22;13455;51.480;7.594;2023-07-08T06:37:55;23.10;90.00
25568;DHT22;13455;51.480;7.594;2023-07-08T06:40:20;23.30;87.90
25568;DHT22;13455;51.480;7.594;2023-07-08T06:42:46;23.40;88.50
25568;DHT22;13455;51.480;7.594;2023-07-08T06:45:12;23.50;88.20
25568;DHT22;13455;51.480;7.594;2023-07-08T06:47:38;23.70;88.40
25568;DHT22;13455;51.480;7.594;2023-07-08T06:50:04;23.80;87.80
25568;DHT22;13455;51.480;7.594;2023-07-08T06:52:30;24.10;86.40
25568;DHT22;13455;51.480;7.594;2023-07-08T06:55:01;24.10;86.70
25568;DHT22;13455;51.480;7.594;2023-07-08T06:57:27;24.20;85.80
25568;DHT22;13455;51.480;7.594;2023-07-08T07:02:19;24.50;83.60
25568;DHT22;13455;51.480;7.594;2023-07-08T07:09:38;24.80;84.00
25568;DHT22;13455;51.480;7.594;2023-07-08T07:12:05;25.00;83.10
25568;DHT22;13455;51.480;7.594;2023-07-08T07:14:32;25.00;82.70
25568;DHT22;13455;51.480;7.594;2023-07-08T07:16:57;25.20;82.30
25568;DHT22;13455;51.480;7.594;2023-07-08T07:19:23;25.40;82.00
25568;DHT22;13455;51.480;7.594;2023-07-08T07:21:49;25.40;80.80
25568;DHT22;13455;51.480;7.594;2023-07-08T07:24:14;25.60;80.60
25568;DHT22;13455;51.480;7.594;2023-07-08T07:26:40;25.60;81.20
25568;DHT22;13455;51.480;7.594;2023-07-08T07:29:05;25.80;81.80
25568;DHT22;13455;51.480;7.594;2023-07-08T07:31:31;25.90;81.80
25568;DHT22;13455;51.480;7.594;2023-07-08T07:33:59;26.20;80.40
25568;DHT22;13455;51.480;7.594;2023-07-08T07:36:24;26.20;80.40
25568;DHT22;13455;51.480;7.594;2023-07-08T07:38:50;26.30;80.80
25568;DHT22;13455;51.480;7.594;2023-07-08T07:41:16;26.50;80.10
25568;DHT22;13455;51.480;7.594;2023-07-08T07:43:42;26.60;79.10
25568;DHT22;13455;51.480;7.594;2023-07-08T07:48:36;26.90;77.80
25568;DHT22;13455;51.480;7.594;2023-07-08T07:51:02;27.00;78.80
25568;DHT22;13455;51.480;7.594;2023-07-08T07:53:28;27.20;79.00
25568;DHT22;13455;51.480;7.594;2023-07-08T07:55:58;27.30;79.20
25568;DHT22;13455;51.480;7.594;2023-07-08T08:00:49;27.50;91.60
25568;DHT22;13455;51.480;7.594;2023-07-08T08:03:15;27.80;78.70
25568;DHT22;13455;51.480;7.594;2023-07-08T08:05:42;27.80;77.50
25568;DHT22;13455;51.480;7.594;2023-07-08T08:08:08;27.90;77.50
25568;DHT22;13455;51.480;7.594;2023-07-08T08:13:01;28.20;76.00
25568;DHT22;13455;51.480;7.594;2023-07-08T08:15:26;28.50;75.80
25568;DHT22;13455;51.480;7.594;2023-07-08T08:17:52;28.60;74.10
25568;DHT22;13455;51.480;7.594;2023-07-08T08:20:19;28.70;73.10
25568;DHT22;13455;51.480;7.594;2023-07-08T08:22:45;28.90;72.60
25568;DHT22;13455;51.480;7.594;2023-07-08T08:25:11;29.10;72.90
25568;DHT22;13455;51.480;7.594;2023-07-08T08:27:37;29.20;71.30
25568;DHT22;13455;51.480;7.594;2023-07-08T08:30:05;29.20;71.80
25568;DHT22;13455;51.480;7.594;2023-07-08T08:32:31;29.40;71.40
25568;DHT22;13455;51.480;7.594;2023-07-08T08:34:56;29.60;70.50
25568;DHT22;13455;51.480;7.594;2023-07-08T08:37:22;29.80;70.60
25568;DHT22;13455;51.480;7.594;2023-07-08T08:39:48;30.00;70.70
25568;DHT22;13455;51.480;7.594;2023-07-08T08:42:34;30.20;70.00
25568;DHT22;13455;51.480;7.594;2023-07-08T08:45:02;30.40;67.60
25568;DHT22;13455;51.480;7.594;2023-07-08T08:52:46;31.20;69.50
25568;DHT22;13455;51.480;7.594;2023-07-08T08:55:13;31.20;65.60
25568;DHT22;13455;51.480;7.594;2023-07-08T09:08:02;32.10;57.30
25568;DHT22;13455;51.480;7.594;2023-07-08T09:10:44;32.20;58.20
25568;DHT22;13455;51.480;7.594;2023-07-08T09:23:40;33.40;51.10
25568;DHT22;13455;51.480;7.594;2023-07-08T09:26:15;33.40;50.40
25568;DHT22;13455;51.480;7.594;2023-07-08T09:36:18;34.20;49.60
25568;DHT22;13455;51.480;7.594;2023-07-08T09:38:47;34.10;49.40
25568;DHT22;13455;51.480;7.594;2023-07-08T09:43:39;34.60;54.40
25568;DHT22;13455;51.480;7.594;2023-07-08T09:48:37;34.90;46.60
25568;DHT22;13455;51.480;7.594;2023-07-08T09:51:03;34.80;46.90
25568;DHT22;13455;51.480;7.594;2023-07-08T09:53:29;35.00;47.70
25568;DHT22;13455;51.480;7.594;2023-07-08T09:55:58;35.00;46.60
25568;DHT22;13455;51.480;7.594;2023-07-08T09:58:39;35.00;46.70
25568;DHT22;13455;51.480;7.594;2023-07-08T10:36:52;36.60;54.20
25568;DHT22;13455;51.480;7.594;2023-07-08T10:52:24;38.00;40.00
25568;DHT22;13455;51.480;7.594;2023-07-08T11:05:43;38.10;38.90
25568;DHT22;13455;51.480;7.594;2023-07-08T11:10:44;38.50;38.20
25568;DHT22;13455;51.480;7.594;2023-07-08T11:13:15;38.60;39.10
25568;DHT22;13455;51.480;7.594;2023-07-08T11:15:53;38.70;38.20
25568;DHT22;13455;51.480;7.594;2023-07-08T11:18:47;38.70;38.00
25568;DHT22;13455;51.480;7.594;2023-07-08T11:21:24;39.00;38.10
25568;DHT22;13455;51.480;7.594;2023-07-08T11:24:11;39.10;46.00
25568;DHT22;13455;51.480;7.594;2023-07-08T11:29:52;39.40;37.20
25568;DHT22;13455;51.480;7.594;2023-07-08T11:32:21;39.70;46.10
25568;DHT22;13455;51.480;7.594;2023-07-08T11:34:50;39.50;35.60
25568;DHT22;13455;51.480;7.594;2023-07-08T11:39:45;39.50;66.30
25568;DHT22;13455;51.480;7.594;2023-07-08T11:47:25;39.20;42.20
25568;DHT22;13455;51.480;7.594;2023-07-08T11:49:52;39.30;40.90
25568;DHT22;13455;51.480;7.594;2023-07-08T11:57:24;39.60;69.70
25568;DHT22;13455;51.480;7.594;2023-07-08T12:00:12;39.80;71.10
25568;DHT22;13455;51.480;7.594;2023-07-08T12:07:44;39.90;33.50
25568;DHT22;13455;51.480;7.594;2023-07-08T12:10:18;40.00;34.20
25568;DHT22;13455;51.480;7.594;2023-07-08T12:12:45;40.10;48.30
25568;DHT22;13455;51.480;7.594;2023-07-08T12:20:32;40.60;48.30
25568;DHT22;13455;51.480;7.594;2023-07-08T12:22:59;40.50;49.00
25568;DHT22;13455;51.480;7.594;2023-07-08T12:25:32;40.50;52.40
25568;DHT22;13455;51.480;7.594;2023-07-08T12:28:00;40.60;59.20
25568;DHT22;13455;51.480;7.594;2023-07-08T12:30:28;40.60;63.60
25568;DHT22;13455;51.480;7.594;2023-07-08T12:32:54;40.90;64.00
25568;DHT22;13455;51.480;7.594;2023-07-08T12:35:30;41.00;64.00
25568;DHT22;13455;51.480;7.594;2023-07-08T12:38:04;41.30;58.00
25568;DHT22;13455;51.480;7.594;2023-07-08T12:40:32;41.20;45.60
25568;DHT22;13455;51.480;7.594;2023-07-08T12:47:52;41.90;31.40
25568;DHT22;13455;51.480;7.594;2023-07-08T12:50:18;41.90;32.00
25568;DHT22;13455;51.480;7.594;2023-07-08T12:52:45;41.90;35.10
25568;DHT22;13455;51.480;7.594;2023-07-08T12:55:13;42.00;31.90
25568;DHT22;13455;51.480;7.594;2023-07-08T12:57:47;41.90;31.30
25568;DHT22;13455;51.480;7.594;2023-07-08T13:00:23;41.90;31.30
25568;DHT22;13455;51.480;7.594;2023-07-08T13:02:58;41.80;34.60
25568;DHT22;13455;51.480;7.594;2023-07-08T13:20:16;42.20;29.60
25568;DHT22;13455;51.480;7.594;2023-07-08T13:22:46;42.30;30.00
25568;DHT22;13455;51.480;7.594;2023-07-08T13:25:16;42.20;30.60
25568;DHT22;13455;51.480;7.594;2023-07-08T13:27:42;42.40;30.90
25568;DHT22;13455;51.480;7.594;2023-07-08T13:30:20;42.30;37.90
25568;DHT22;13455;51.480;7.594;2023-07-08T13:32:52;42.50;31.10
25568;DHT22;13455;51.480;7.594;2023-07-08T13:35:37;42.70;29.70
25568;DHT22;13455;51.480;7.594;2023-07-08T13:38:04;42.50;29.80
25568;DHT22;13455;51.480;7.594;2023-07-08T13:40:30;42.50;30.00
25568;DHT22;13455;51.480;7.594;2023-07-08T13:42:57;42.60;30.60
25568;DHT22;13455;51.480;7.594;2023-07-08T13:45:30;42.90;30.80
25568;DHT22;13455;51.480;7.594;2023-07-08T13:48:11;42.80;34.80
25568;DHT22;13455;51.480;7.594;2023-07-08T13:50:51;42.90;30.00
25568;DHT22;13455;51.480;7.594;2023-07-08T14:05:52;44.10;55.70
25568;DHT22;13455;51.480;7.594;2023-07-08T14:08:17;44.10;57.10
25568;DHT22;13455;51.480;7.594;2023-07-08T14:10:43;44.20;60.40
25568;DHT22;13455;51.480;7.594;2023-07-08T14:18:03;44.50;61.90
25568;DHT22;13455;51.480;7.594;2023-07-08T14:20:29;44.70;53.70
25568;DHT22;13455;51.480;7.594;2023-07-08T14:22:55;44.50;46.90
25568;DHT22;13455;51.480;7.594;2023-07-08T14:25:21;44.70;45.80
25568;DHT22;13455;51.480;7.594;2023-07-08T14:32:41;45.40;28.70
25568;DHT22;13455;51.480;7.594;2023-07-08T14:35:17;45.40;29.00
25568;DHT22;13455;51.480;7.594;2023-07-08T14:59:54;45.10;28.40
25568;DHT22;13455;51.480;7.594;2023-07-08T15:17:01;45.50;27.70
25568;DHT22;13455;51.480;7.594;2023-07-08T15:19:26;45.50;27.90
25568;DHT22;13455;51.480;7.594;2023-07-08T15:21:53;45.60;28.00
25568;DHT22;13455;51.480;7.594;2023-07-08T15:24:19;45.90;27.90
25568;DHT22;13455;51.480;7.594;2023-07-08T15:26:47;46.10;28.10
25568;DHT22;13455;51.480;7.594;2023-07-08T15:29:21;46.30;28.10
25568;DHT22;13455;51.480;7.594;2023-07-08T15:31:47;46.70;28.30
25568;DHT22;13455;51.480;7.594;2023-07-08T15:34:15;47.10;28.60
25568;DHT22;13455;51.480;7.594;2023-07-08T15:36:41;47.40;27.60
25568;DHT22;13455;51.480;7.594;2023-07-08T15:39:06;47.50;27.50
25568;DHT22;13455;51.480;7.594;2023-07-08T15:41:32;47.50;34.00
25568;DHT22;13455;51.480;7.594;2023-07-08T15:43:59;47.10;27.20
25568;DHT22;13455;51.480;7.594;2023-07-08T15:46:35;47.10;27.00
25568;DHT22;13455;51.480;7.594;2023-07-08T15:49:04;46.80;26.80
25568;DHT22;13455;51.480;7.594;2023-07-08T15:51:35;46.70;27.00
25568;DHT22;13455;51.480;7.594;2023-07-08T15:54:01;46.60;27.40
25568;DHT22;13455;51.480;7.594;2023-07-08T15:56:27;46.70;27.50
25568;DHT22;13455;51.480;7.594;2023-07-08T15:58:52;46.40;27.00
25568;DHT22;13455;51.480;7.594;2023-07-08T16:01:21;45.90;27.20
25568;DHT22;13455;51.480;7.594;2023-07-08T16:03:48;45.10;27.50
25568;DHT22;13455;51.480;7.594;2023-07-08T16:06:15;44.90;28.50
25568;DHT22;13455;51.480;7.594;2023-07-08T16:08:40;45.00;29.00
25568;DHT22;13455;51.480;7.594;2023-07-08T16:11:24;45.10;28.90
25568;DHT22;13455;51.480;7.594;2023-07-08T16:13:53;45.30;29.40
25568;DHT22;13455;51.480;7.594;2023-07-08T16:16:19;45.50;29.30
25568;DHT22;13455;51.480;7.594;2023-07-08T16:18:45;45.50;28.60
25568;DHT22;13455;51.480;7.594;2023-07-08T16:21:11;45.60;28.50
25568;DHT22;13455;51.480;7.594;2023-07-08T16:23:37;45.60;28.50
25568;DHT22;13455;51.480;7.594;2023-07-08T16:26:03;45.50;28.50
25568;DHT22;13455;51.480;7.594;2023-07-08T16:28:43;44.60;27.90
25568;DHT22;13455;51.480;7.594;2023-07-08T16:33:36;43.70;29.20
25568;DHT22;13455;51.480;7.594;2023-07-08T16:36:02;43.60;29.90
25568;DHT22;13455;51.480;7.594;2023-07-08T16:53:10;41.70;31.80
25568;DHT22;13455;51.480;7.594;2023-07-08T16:55:36;42.10;32.80
25568;DHT22;13455;51.480;7.594;2023-07-08T16:58:02;41.90;33.50
25568;DHT22;13455;51.480;7.594;2023-07-08T17:07:49;41.10;61.50
25568;DHT22;13455;51.480;7.594;2023-07-08T17:25:12;39.00;36.80
25568;DHT22;13455;51.480;7.594;2023-07-08T17:32:30;38.30;37.90
25568;DHT22;13455;51.480;7.594;2023-07-08T17:34:56;38.10;38.50
25568;DHT22;13455;51.480;7.594;2023-07-08T17:37:22;38.00;38.90
25568;DHT22;13455;51.480;7.594;2023-07-08T17:39:47;37.80;38.90
25568;DHT22;13455;51.480;7.594;2023-07-08T17:42:13;37.60;39.00
25568;DHT22;13455;51.480;7.594;2023-07-08T17:44:39;37.30;71.80
25568;DHT22;13455;51.480;7.594;2023-07-08T17:47:09;37.20;40.40
25568;DHT22;13455;51.480;7.594;2023-07-08T17:49:36;37.00;40.70
25568;DHT22;13455;51.480;7.594;2023-07-08T17:52:02;36.80;41.20
25568;DHT22;13455;51.480;7.594;2023-07-08T17:54:28;36.50;41.30
25568;DHT22;13455;51.480;7.594;2023-07-08T17:56:56;36.20;42.00
25568;DHT22;13455;51.480;7.594;2023-07-08T17:59:23;36.00;42.10
25568;DHT22;13455;51.480;7.594;2023-07-08T18:04:15;35.70;42.10
25568;DHT22;13455;51.480;7.594;2023-07-08T18:26:25;35.30;45.20
25568;DHT22;13455;51.480;7.594;2023-07-08T18:28:51;35.30;45.90
25568;DHT22;13455;51.480;7.594;2023-07-08T18:31:21;35.20;46.70
25568;DHT22;13455;51.480;7.594;2023-07-08T18:33:48;35.20;46.70
25568;DHT22;13455;51.480;7.594;2023-07-08T18:36:15;35.00;46.70
25568;DHT22;13455;51.480;7.594;2023-07-08T18:38:41;35.00;46.30
25568;DHT22;13455;51.480;7.594;2023-07-08T18:41:16;34.80;46.00
25568;DHT22;13455;51.480;7.594;2023-07-08T18:56:00;34.30;47.30
25568;DHT22;13455;51.480;7.594;2023-07-08T18:58:26;34.30;47.90
25568;DHT22;13455;51.480;7.594;2023-07-08T19:03:23;34.00;47.60
25568;DHT22;13455;51.480;7.594;2023-07-08T19:05:50;34.00;48.50
25568;DHT22;13455;51.480;7.594;2023-07-08T19:08:17;33.80;48.20
25568;DHT22;13455;51.480;7.594;2023-07-08T19:10:43;33.20;66.80
25568;DHT22;13455;51.480;7.594;2023-07-08T19:18:02;33.10;48.70
25568;DHT22;13455;51.480;7.594;2023-07-08T19:23:17;32.90;49.30
25568;DHT22;13455;51.480;7.594;2023-07-08T19:33:04;32.40;51.60
25568;DHT22;13455;51.480;7.594;2023-07-08T19:35:38;32.40;52.70
25568;DHT22;13455;51.480;7.594;2023-07-08T19:38:05;32.20;51.60
25568;DHT22;13455;51.480;7.594;2023-07-08T19:45:26;31.60;53.90
25568;DHT22;13455;51.480;7.594;2023-07-08T19:47:53;31.50;54.60
25568;DHT22;13455;51.480;7.594;2023-07-08T19:50:21;31.20;67.20
25568;DHT22;13455;51.480;7.594;2023-07-08T19:52:47;31.20;55.80
25568;DHT22;13455;51.480;7.594;2023-07-08T20:02:43;30.50;55.60
25568;DHT22;13455;51.480;7.594;2023-07-08T20:05:11;30.70;56.60
25568;DHT22;13455;51.480;7.594;2023-07-08T20:07:37;30.20;57.00
25568;DHT22;13455;51.480;7.594;2023-07-08T20:12:29;30.00;57.50
25568;DHT22;13455;51.480;7.594;2023-07-08T20:14:55;29.90;57.80
25568;DHT22;13455;51.480;7.594;2023-07-08T20:17:21;29.80;58.70
25568;DHT22;13455;51.480;7.594;2023-07-08T20:19:47;29.70;59.20
25568;DHT22;13455;51.480;7.594;2023-07-08T20:22:15;29.60;59.30
25568;DHT22;13455;51.480;7.594;2023-07-08T20:24:41;29.50;59.50
25568;DHT22;13455;51.480;7.594;2023-07-08T20:27:09;29.40;59.70
25568;DHT22;13455;51.480;7.594;2023-07-08T20:29:35;29.40;59.90
25568;DHT22;13455;51.480;7.594;2023-07-08T20:32:01;29.30;60.10
25568;DHT22;13455;51.480;7.594;2023-07-08T20:34:26;29.20;60.70
25568;DHT22;13455;51.480;7.594;2023-07-08T20:36:52;29.00;60.90
25568;DHT22;13455;51.480;7.594;2023-07-08T20:39:20;28.90;61.20
25568;DHT22;13455;51.480;7.594;2023-07-08T20:41:53;28.80;61.20
25568;DHT22;13455;51.480;7.594;2023-07-08T20:44:19;28.70;61.20
25568;DHT22;13455;51.480;7.594;2023-07-08T20:46:45;28.60;61.50
25568;DHT22;13455;51.480;7.594;2023-07-08T20:49:13;28.60;61.80
25568;DHT22;13455;51.480;7.594;2023-07-08T20:51:39;28.50;61.90
25568;DHT22;13455;51.480;7.594;2023-07-08T20:54:11;28.40;62.20
25568;DHT22;13455;51.480;7.594;2023-07-08T20:56:37;28.30;62.50
25568;DHT22;13455;51.480;7.594;2023-07-08T20:59:02;28.20;62.80
25568;DHT22;13455;51.480;7.594;2023-07-08T21:01:28;28.20;62.90
25568;DHT22;13455;51.480;7.594;2023-07-08T21:03:57;28.10;63.10
25568;DHT22;13455;51.480;7.594;2023-07-08T21:06:27;28.00;63.10
25568;DHT22;13455;51.480;7.594;2023-07-08T21:08:57;27.90;63.40
25568;DHT22;13455;51.480;7.594;2023-07-08T21:11:22;27.90;63.60
25568;DHT22;13455;51.480;7.594;2023-07-08T21:13:48;27.80;63.70
25568;DHT22;13455;51.480;7.594;2023-07-08T21:16:17;27.70;63.30
25568;DHT22;13455;51.480;7.594;2023-07-08T21:18:43;27.60;63.60
25568;DHT22;13455;51.480;7.594;2023-07-08T21:21:12;27.50;63.60
25568;DHT22;13455;51.480;7.594;2023-07-08T21:23:39;27.50;64.00
25568;DHT22;13455;51.480;7.594;2023-07-08T21:26:26;27.40;63.70
25568;DHT22;13455;51.480;7.594;2023-07-08T21:28:55;27.30;63.80
25568;DHT22;13455;51.480;7.594;2023-07-08T21:31:21;27.30;63.90
25568;DHT22;13455;51.480;7.594;2023-07-08T21:33:46;27.20;64.00
25568;DHT22;13455;51.480;7.594;2023-07-08T21:38:44;27.10;64.80
25568;DHT22;13455;51.480;7.594;2023-07-08T21:43:36;27.00;64.50
25568;DHT22;13455;51.480;7.594;2023-07-08T21:46:02;27.00;65.20
25568;DHT22;13455;51.480;7.594;2023-07-08T21:48:30;26.90;65.40
25568;DHT22;13455;51.480;7.594;2023-07-08T21:50:57;26.80;77.00
25568;DHT22;13455;51.480;7.594;2023-07-08T21:53:36;26.80;78.80
25568;DHT22;13455;51.480;7.594;2023-07-08T21:56:03;26.60;65.30
25568;DHT22;13455;51.480;7.594;2023-07-08T21:58:29;26.70;66.40
25568;DHT22;13455;51.480;7.594;2023-07-08T22:00:56;26.50;67.50
25568;DHT22;13455;51.480;7.594;2023-07-08T22:03:26;26.50;66.50